Time;durP1;ratioP1;P1;durP2;ratioP2;P2;SDS_P1;SDS_P2;PMS_P1;PMS_P2;Temp;Humidity;BMP_temperature;BMP_pressure;BME280_temperature;BME280_humidity;BME280_pressure;Samples;Min_cycle;Max_cycle;Signal;HPM_P1;HPM_P2
2021/10/14 05:49:26;;;;;;;4.05;1.17;;;17.60;72.40;;;;;;5594317;24;20051;-69
2021/10/14 05:51:52;;;;;;;6.18;2.40;;;17.50;72.70;;;;;;4825699;29;20054;-70
2021/10/14 05:54:17;;;;;;;5.82;2.03;;;17.50;72.50;;;;;;4827656;29;20061;-72
2021/10/14 05:56:43;;;;;;;6.72;1.88;;;17.30;72.90;;;;;;4818655;29;20133;-70
2021/10/14 05:59:09;;;;;;;4.53;1.58;;;17.30;73.40;;;;;;4809007;29;20086;-69
2021/10/14 06:01:34;;;;;;;11.55;1.88;;;17.30;73.60;;;;;;4810412;29;20174;-69
2021/10/14 06:04:00;;;;;;;10.30;1.80;;;17.30;73.80;;;;;;4815430;29;20050;-69
2021/10/14 06:06:26;;;;;;;5.95;1.95;;;17.40;74.20;;;;;;4827246;29;20054;-79
2021/10/14 06:08:51;;;;;;;11.02;2.58;;;17.40;74.20;;;;;;4827192;29;20470;-73
2021/10/14 06:11:17;;;;;;;8.25;2.10;;;17.40;74.60;;;;;;4811516;29;20427;-75
2021/10/14 06:13:43;;;;;;;11.00;1.90;;;17.40;74.50;;;;;;4827118;29;20050;-71
2021/10/14 06:16:09;;;;;;;10.73;3.42;;;17.40;74.40;;;;;;4827211;29;20054;-72
2021/10/14 06:18:36;;;;;;;9.57;3.33;;;17.50;74.20;;;;;;4820792;29;20088;-74
2021/10/14 06:21:02;;;;;;;9.63;3.33;;;17.50;73.90;;;;;;4802624;29;20470;-74
2021/10/14 06:23:28;;;;;;;12.45;3.22;;;17.40;73.60;;;;;;4813318;29;20144;-75
2021/10/14 06:25:55;;;;;;;13.30;3.67;;;17.40;73.90;;;;;;4793873;29;20058;-74
2021/10/14 06:28:21;;;;;;;10.45;3.47;;;17.40;74.70;;;;;;4827125;29;20061;-74
2021/10/14 06:30:47;;;;;;;12.20;3.50;;;17.40;75.10;;;;;;4810748;29;20081;-73
2021/10/14 06:33:13;;;;;;;10.90;3.28;;;17.40;75.30;;;;;;4810707;29;20141;-80
2021/10/14 06:35:39;;;;;;;10.40;2.63;;;17.50;75.60;;;;;;4794368;29;20113;-73
2021/10/14 06:38:06;;;;;;;9.43;3.00;;;17.50;75.20;;;;;;4816991;29;20070;-78
2021/10/14 06:40:32;;;;;;;7.13;3.20;;;17.50;75.40;;;;;;4794980;29;20050;-76
2021/10/14 06:42:58;;;;;;;11.85;3.10;;;17.60;75.60;;;;;;4826648;29;20054;-75
2021/10/14 06:45:24;;;;;;;6.10;2.83;;;17.60;75.40;;;;;;4810229;29;20141;-76
2021/10/14 06:47:49;;;;;;;14.45;3.08;;;17.60;75.90;;;;;;4810614;29;20086;-75
2021/10/14 06:50:16;;;;;;;5.88;3.40;;;17.60;76.10;;;;;;4826719;29;20098;-77
2021/10/14 06:52:42;;;;;;;6.57;3.38;;;17.60;76.20;;;;;;4810530;29;20058;-75
2021/10/14 06:55:08;;;;;;;11.23;2.70;;;17.60;76.10;;;;;;4810243;29;20061;-76
2021/10/14 06:57:33;;;;;;;7.88;2.95;;;17.60;76.20;;;;;;4809980;29;20128;-76
2021/10/14 06:59:59;;;;;;;15.23;3.55;;;17.60;76.10;;;;;;4826023;29;20046;-75
2021/10/14 07:02:25;;;;;;;6.07;2.40;;;17.60;76.20;;;;;;4826728;29;20141;-72
2021/10/14 07:04:51;;;;;;;7.53;2.85;;;17.70;76.40;;;;;;4826451;29;20042;-75
2021/10/14 07:07:16;;;;;;;8.95;3.50;;;17.70;76.40;;;;;;4826359;29;20522;-77
2021/10/14 07:09:42;;;;;;;9.50;3.72;;;17.60;76.30;;;;;;4826484;29;20046;-73
2021/10/14 07:12:10;;;;;;;8.15;3.38;;;17.60;76.00;;;;;;4810045;29;20046;-74
2021/10/14 07:14:40;;;;;;;15.05;3.97;;;17.70;76.10;;;;;;4825881;29;20055;-74
2021/10/14 07:17:06;;;;;;;9.32;3.42;;;17.60;75.60;;;;;;4809921;29;20050;-75
2021/10/14 07:19:33;;;;;;;5.03;2.85;;;17.60;75.30;;;;;;4826299;29;20051;-75
2021/10/14 07:21:59;;;;;;;7.80;3.00;;;17.60;75.00;;;;;;4822735;29;20066;-73
2021/10/14 07:24:25;;;;;;;8.75;3.60;;;17.60;74.80;;;;;;4826221;29;20343;-73
2021/10/14 07:26:51;;;;;;;9.18;3.60;;;17.60;74.80;;;;;;4820548;29;20054;-74
2021/10/14 07:29:18;;;;;;;7.45;3.35;;;17.60;74.90;;;;;;4826428;29;21074;-74
2021/10/14 07:31:43;;;;;;;10.98;4.00;;;17.60;74.80;;;;;;4810213;29;20058;-75
2021/10/14 07:34:09;;;;;;;23.48;4.18;;;17.50;74.80;;;;;;4822411;29;20062;-74
2021/10/14 07:36:35;;;;;;;8.73;3.88;;;17.60;74.80;;;;;;4824080;29;20545;-73
2021/10/14 07:39:02;;;;;;;11.07;4.28;;;17.60;74.40;;;;;;4825255;29;20062;-73
2021/10/14 07:41:29;;;;;;;16.42;3.80;;;17.50;73.90;;;;;;4809008;29;20115;-73
2021/10/14 07:43:55;;;;;;;9.32;3.60;;;17.50;73.20;;;;;;4826212;29;20043;-72
2021/10/14 07:46:21;;;;;;;9.32;3.70;;;17.50;73.10;;;;;;4825888;29;20043;-73
2021/10/14 07:48:47;;;;;;;7.88;4.18;;;17.30;72.80;;;;;;4825971;29;20084;-73
2021/10/14 07:51:14;;;;;;;4.32;3.30;;;17.10;72.70;;;;;;4828031;29;20074;-73
2021/10/14 07:53:40;;;;;;;7.47;3.45;;;17.00;72.90;;;;;;4829581;29;20062;-73
2021/10/14 07:56:06;;;;;;;7.10;3.17;;;16.90;73.50;;;;;;4829021;29;20096;-73
2021/10/14 07:58:32;;;;;;;8.77;3.92;;;17.00;73.70;;;;;;4829183;29;20046;-73
2021/10/14 08:00:58;;;;;;;9.73;3.58;;;17.10;72.60;;;;;;4828875;29;20340;-74
2021/10/14 08:03:24;;;;;;;8.90;3.05;;;17.20;71.90;;;;;;4812946;29;20195;-73
2021/10/14 08:05:50;;;;;;;8.13;3.30;;;17.20;71.20;;;;;;4829128;29;20126;-72
2021/10/14 08:08:15;;;;;;;12.68;3.35;;;17.30;71.10;;;;;;4829063;29;20165;-69
2021/10/14 08:10:41;;;;;;;6.82;3.08;;;17.30;71.00;;;;;;4829220;29;20053;-73
2021/10/14 08:13:13;;;;;;;5.93;2.90;;;17.30;71.10;;;;;;4828787;29;20500;-73
2021/10/14 08:15:44;;;;;;;6.63;3.10;;;17.30;71.00;;;;;;4828947;29;20454;-70
2021/10/14 08:18:09;;;;;;;12.77;3.42;;;17.30;71.10;;;;;;4828806;29;20137;-76
2021/10/14 08:20:35;;;;;;;5.40;2.58;;;17.30;71.20;;;;;;4828933;29;20175;-73
2021/10/14 08:23:03;;;;;;;12.45;3.55;;;17.40;71.40;;;;;;4828510;29;20051;-72
2021/10/14 08:25:28;;;;;;;6.10;2.80;;;17.40;71.40;;;;;;4829363;29;20050;-73
2021/10/14 08:27:54;;;;;;;8.25;3.03;;;17.40;71.40;;;;;;4828240;29;20057;-74
2021/10/14 08:30:20;;;;;;;6.25;2.70;;;17.40;71.40;;;;;;4828606;29;20133;-73
2021/10/14 08:32:46;;;;;;;7.07;2.72;;;17.30;71.30;;;;;;4828283;29;20386;-73
2021/10/14 08:35:12;;;;;;;6.13;3.05;;;17.30;71.40;;;;;;4828400;29;20471;-73
2021/10/14 08:37:39;;;;;;;6.85;2.67;;;17.30;71.50;;;;;;4828281;29;20069;-74
2021/10/14 08:40:05;;;;;;;5.57;2.85;;;17.30;71.50;;;;;;4827989;29;20089;-74
2021/10/14 08:42:32;;;;;;;6.32;3.20;;;17.30;71.60;;;;;;4827675;29;20051;-76
2021/10/14 08:45:03;;;;;;;7.53;3.15;;;17.30;71.60;;;;;;4828043;29;20065;-73
2021/10/14 08:47:29;;;;;;;4.82;2.53;;;17.30;71.60;;;;;;4828477;29;20108;-73
2021/10/14 08:49:57;;;;;;;7.25;3.10;;;17.30;71.70;;;;;;4828115;29;20474;-73
2021/10/14 08:52:23;;;;;;;3.65;2.40;;;17.30;71.70;;;;;;4827823;29;20046;-73
2021/10/14 08:54:48;;;;;;;5.28;2.88;;;17.30;71.70;;;;;;4812638;29;20050;-73
2021/10/14 08:57:14;;;;;;;4.03;2.78;;;17.30;71.70;;;;;;4828168;29;20073;-74
2021/10/14 08:59:40;;;;;;;4.00;2.40;;;17.30;71.80;;;;;;4827999;29;20082;-74
2021/10/14 09:02:19;;;;;;;4.70;3.00;;;17.30;71.80;;;;;;4810723;29;20062;-73
2021/10/14 09:04:47;;;;;;;5.97;3.00;;;17.30;71.80;;;;;;4828136;29;20370;-74
2021/10/14 09:07:19;;;;;;;7.00;2.63;;;17.40;71.90;;;;;;4828197;29;20164;-73
2021/10/14 09:09:46;;;;;;;6.78;2.70;;;17.40;71.90;;;;;;4827953;29;20058;-74
2021/10/14 09:12:14;;;;;;;5.68;3.10;;;17.40;71.90;;;;;;4827787;29;20046;-73
2021/10/14 09:15:01;;;;;;;5.25;2.80;;;17.40;71.90;;;;;;4828121;29;20096;-73
2021/10/14 09:17:45;;;;;;;5.03;2.95;;;17.40;71.80;;;;;;4827912;29;20478;-73
2021/10/14 09:20:36;;;;;;;4.15;2.70;;;17.40;71.80;;;;;;4828067;29;20371;-74
2021/10/14 09:23:16;;;;;;;3.75;2.63;;;17.40;71.70;;;;;;4827686;29;20083;-74
2021/10/14 09:25:53;;;;;;;3.25;2.85;;;17.40;71.70;;;;;;4811311;29;20138;-74
2021/10/14 09:28:29;;;;;;;6.95;2.50;;;17.40;71.70;;;;;;4827447;29;20122;-74
2021/10/14 09:31:06;;;;;;;5.07;3.00;;;17.40;71.60;;;;;;4827563;29;20066;-74
2021/10/14 09:33:43;;;;;;;4.25;3.42;;;17.40;71.70;;;;;;4827527;29;20131;-74
2021/10/14 09:36:27;;;;;;;4.55;3.17;;;17.40;71.80;;;;;;4827583;29;20046;-75
2021/10/14 09:38:54;;;;;;;4.65;2.80;;;17.40;71.70;;;;;;4827386;29;20118;-75
2021/10/14 09:41:22;;;;;;;4.10;2.90;;;17.40;71.80;;;;;;4827562;29;20046;-74
2021/10/14 09:43:53;;;;;;;5.72;3.20;;;17.40;71.80;;;;;;4827141;29;20058;-73
2021/10/14 09:46:36;;;;;;;5.38;3.45;;;17.40;71.80;;;;;;4827565;29;20091;-74
2021/10/14 09:49:07;;;;;;;4.75;2.55;;;17.40;71.80;;;;;;4827400;29;20058;-74
2021/10/14 09:51:33;;;;;;;4.15;3.15;;;17.50;71.90;;;;;;4826963;29;20070;-74
2021/10/14 09:53:59;;;;;;;4.75;2.95;;;17.50;71.90;;;;;;4826653;29;20058;-74
2021/10/14 09:56:27;;;;;;;4.10;2.40;;;17.50;71.80;;;;;;4826709;29;20078;-74
2021/10/14 09:58:53;;;;;;;3.50;2.45;;;17.50;71.80;;;;;;4827255;29;20054;-74
2021/10/14 10:01:19;;;;;;;4.20;2.47;;;17.50;71.80;;;;;;4827143;29;20050;-74
2021/10/14 10:03:45;;;;;;;5.45;2.80;;;17.50;71.80;;;;;;4826843;29;20050;-74
2021/10/14 10:06:13;;;;;;;4.30;3.10;;;17.50;71.80;;;;;;4826087;29;20069;-73
2021/10/14 10:08:42;;;;;;;4.43;3.08;;;17.40;71.70;;;;;;4827079;29;20077;-74
2021/10/14 10:11:12;;;;;;;3.38;2.15;;;17.50;71.80;;;;;;4826633;29;20065;-74
2021/10/14 10:13:44;;;;;;;5.35;2.65;;;17.50;71.70;;;;;;4818348;29;20046;-74
2021/10/14 10:16:14;;;;;;;3.67;2.42;;;17.50;71.70;;;;;;4812970;29;20061;-75
2021/10/14 10:18:41;;;;;;;3.22;2.05;;;17.50;71.60;;;;;;4808355;29;20054;-75
2021/10/14 10:21:09;;;;;;;5.57;2.35;;;17.50;71.60;;;;;;4808880;29;20078;-74
2021/10/14 10:23:49;;;;;;;4.10;2.58;;;17.50;71.40;;;;;;4823031;29;20521;-74
2021/10/14 10:26:35;;;;;;;4.60;2.35;;;17.50;71.20;;;;;;4827729;29;20457;-74
2021/10/14 10:29:02;;;;;;;5.72;2.53;;;17.40;71.10;;;;;;4826216;29;20079;-75
2021/10/14 10:31:51;;;;;;;4.13;2.35;;;17.50;71.20;;;;;;4826358;29;20050;-75
2021/10/14 10:34:32;;;;;;;2.88;2.00;;;17.50;70.80;;;;;;4814316;29;20071;-74
2021/10/14 10:37:27;;;;;;;3.42;1.83;;;17.60;70.80;;;;;;4826710;29;20343;-78
2021/10/14 10:39:57;;;;;;;6.82;2.00;;;17.70;70.70;;;;;;4827090;29;20065;-75
2021/10/14 10:42:41;;;;;;;5.18;1.60;;;17.80;70.50;;;;;;4825231;29;20061;-74
2021/10/14 10:45:10;;;;;;;3.22;1.65;;;17.90;70.50;;;;;;4826458;29;20091;-76
2021/10/14 10:47:46;;;;;;;2.28;1.50;;;18.00;70.40;;;;;;4826419;29;20133;-74
2021/10/14 10:50:29;;;;;;;3.17;1.30;;;18.00;70.20;;;;;;4825538;29;20163;-75
2021/10/14 10:53:26;;;;;;;4.05;1.50;;;18.10;70.20;;;;;;4825293;29;20058;-76
2021/10/14 10:55:56;;;;;;;3.10;1.58;;;18.10;70.20;;;;;;4800165;29;20162;-76
2021/10/14 10:58:44;;;;;;;4.60;1.67;;;18.20;70.20;;;;;;4805639;29;20058;-74
2021/10/14 11:01:10;;;;;;;4.55;1.25;;;18.10;70.30;;;;;;4808187;29;20482;-75
2021/10/14 11:03:36;;;;;;;4.53;1.42;;;18.20;70.40;;;;;;4814441;29;20081;-76
2021/10/14 11:06:08;;;;;;;3.28;1.60;;;18.20;70.40;;;;;;4826250;29;20070;-76
2021/10/14 11:08:35;;;;;;;2.80;1.58;;;18.20;70.40;;;;;;4826729;29;20113;-76
2021/10/14 11:11:08;;;;;;;2.65;1.38;;;18.20;70.40;;;;;;4826149;29;20050;-75
2021/10/14 11:13:42;;;;;;;2.22;1.27;;;18.20;70.40;;;;;;4826303;29;20050;-75
2021/10/14 11:16:13;;;;;;;2.60;1.50;;;18.20;70.40;;;;;;4826177;29;20053;-75
2021/10/14 11:18:41;;;;;;;3.80;1.42;;;18.20;70.40;;;;;;4826047;29;20054;-75
2021/10/14 11:21:09;;;;;;;3.08;1.25;;;18.30;70.50;;;;;;4825948;29;20050;-74
2021/10/14 11:23:40;;;;;;;6.30;1.70;;;18.30;70.40;;;;;;4826394;29;20129;-74
2021/10/14 11:26:08;;;;;;;3.25;1.40;;;18.30;70.30;;;;;;4825711;29;20050;-74
2021/10/14 11:28:56;;;;;;;3.90;1.58;;;18.40;70.20;;;;;;4810101;29;20050;-74
2021/10/14 11:31:26;;;;;;;4.63;1.70;;;18.40;70.00;;;;;;4826491;29;20058;-75
2021/10/14 11:33:52;;;;;;;6.85;2.17;;;18.30;69.90;;;;;;4826078;29;20133;-76
2021/10/14 11:36:21;;;;;;;5.35;1.77;;;18.00;70.60;;;;;;4826256;29;20046;-73
2021/10/14 11:39:02;;;;;;;4.68;2.13;;;17.80;71.20;;;;;;4826114;29;20061;-74
2021/10/14 11:41:29;;;;;;;5.05;1.75;;;17.70;72.00;;;;;;4825766;29;20137;-73
2021/10/14 11:44:00;;;;;;;4.28;1.88;;;17.60;72.40;;;;;;4825561;29;20042;-75
2021/10/14 11:46:28;;;;;;;4.03;1.70;;;17.50;72.70;;;;;;4825694;29;20069;-74
2021/10/14 11:48:59;;;;;;;5.40;2.33;;;17.40;73.50;;;;;;4825791;29;20050;-73
2021/10/14 11:51:24;;;;;;;6.50;2.42;;;17.40;73.10;;;;;;4825781;29;20141;-75
2021/10/14 11:54:06;;;;;;;4.55;2.38;;;17.40;73.30;;;;;;4809694;29;20086;-74
2021/10/14 11:56:40;;;;;;;5.70;2.50;;;17.40;73.40;;;;;;4825533;29;20059;-73
2021/10/14 11:59:05;;;;;;;3.47;2.33;;;17.40;73.50;;;;;;4825771;29;20439;-73
2021/10/14 12:01:39;;;;;;;6.07;2.33;;;17.30;73.50;;;;;;4825475;29;20051;-74
2021/10/14 12:04:06;;;;;;;5.95;2.17;;;17.30;73.70;;;;;;4825492;29;20062;-74
2021/10/14 12:06:32;;;;;;;3.97;2.53;;;17.30;73.70;;;;;;4824541;29;20137;-75
2021/10/14 12:08:58;;;;;;;6.32;2.80;;;17.30;73.70;;;;;;4825525;29;20407;-74
2021/10/14 12:11:25;;;;;;;2.95;2.30;;;17.30;73.70;;;;;;4825557;29;20172;-74
2021/10/14 12:14:03;;;;;;;3.88;3.00;;;17.30;73.70;;;;;;4825154;29;20098;-75
2021/10/14 12:16:31;;;;;;;5.35;2.63;;;17.30;73.60;;;;;;4825418;29;20051;-74
2021/10/14 12:19:19;;;;;;;5.88;3.15;;;17.30;73.60;;;;;;4825771;29;20077;-75
2021/10/14 12:21:46;;;;;;;8.65;3.00;;;17.40;73.70;;;;;;4825214;29;20047;-73
2021/10/14 12:24:24;;;;;;;5.15;2.97;;;17.30;73.50;;;;;;4825959;29;20130;-74
2021/10/14 12:26:54;;;;;;;4.15;2.83;;;17.40;73.50;;;;;;4825645;29;20154;-73
2021/10/14 12:29:33;;;;;;;3.60;2.88;;;17.40;73.40;;;;;;4825179;29;20191;-74
2021/10/14 12:32:15;;;;;;;4.65;2.90;;;17.40;73.30;;;;;;4824993;29;20050;-74
2021/10/14 12:34:45;;;;;;;3.83;2.55;;;17.40;73.40;;;;;;4809532;29;20050;-74
2021/10/14 12:37:11;;;;;;;3.40;2.55;;;17.40;73.30;;;;;;4827546;29;20431;-74
2021/10/14 12:39:38;;;;;;;2.92;2.53;;;17.40;73.20;;;;;;4828929;29;20077;-74
2021/10/14 12:42:05;;;;;;;3.55;2.47;;;17.40;73.20;;;;;;4828143;29;20482;-77
2021/10/14 12:47:45;;;;;;;6.05;3.22;;;17.50;72.90;;;;;;4809140;29;20134;-73
2021/10/14 12:50:30;;;;;;;7.85;3.00;;;17.50;72.60;;;;;;4827954;29;20443;-74
2021/10/14 12:53:16;;;;;;;5.88;2.65;;;17.50;72.10;;;;;;4826741;29;20485;-74
2021/10/14 12:55:55;;;;;;;5.93;3.00;;;17.50;71.70;;;;;;4828052;29;20050;-76
2021/10/14 12:58:21;;;;;;;5.40;2.83;;;17.60;71.90;;;;;;4828079;29;20158;-75
2021/10/14 13:01:18;;;;;;;6.25;2.63;;;17.60;72.00;;;;;;4812253;29;20054;-74
2021/10/14 13:03:46;;;;;;;5.75;2.67;;;17.60;71.50;;;;;;4820632;29;20077;-75
2021/10/14 13:06:12;;;;;;;9.70;3.53;;;17.50;72.10;;;;;;4812277;29;20084;-74
2021/10/14 13:08:41;;;;;;;5.18;2.70;;;17.50;72.60;;;;;;4812242;29;20054;-74
2021/10/14 13:11:09;;;;;;;9.88;3.88;;;17.50;72.30;;;;;;4827746;29;20058;-73
2021/10/14 13:13:35;;;;;;;10.18;2.92;;;17.50;72.50;;;;;;4827720;29;20155;-73
2021/10/14 13:16:03;;;;;;;6.60;3.15;;;17.60;72.50;;;;;;4828067;29;20446;-73
2021/10/14 13:18:29;;;;;;;5.13;3.25;;;17.60;72.20;;;;;;4827510;29;20096;-73
2021/10/14 13:21:00;;;;;;;6.78;3.50;;;17.50;72.30;;;;;;4828008;29;20055;-74
2021/10/14 13:23:27;;;;;;;6.22;3.10;;;17.50;72.30;;;;;;4812038;29;20470;-73
2021/10/14 13:25:55;;;;;;;5.28;3.30;;;17.60;72.30;;;;;;4827440;29;20046;-73
2021/10/14 13:28:24;;;;;;;7.60;3.05;;;17.60;72.20;;;;;;4827612;29;20374;-73
2021/10/14 13:30:50;;;;;;;5.15;3.30;;;17.60;72.20;;;;;;4827756;29;20477;-73
2021/10/14 13:33:19;;;;;;;5.53;2.92;;;17.50;72.10;;;;;;4827594;29;20054;-73
2021/10/14 13:35:46;;;;;;;6.10;3.55;;;17.60;72.20;;;;;;4827475;29;20107;-72
2021/10/14 13:38:16;;;;;;;4.80;3.00;;;17.60;72.20;;;;;;4827305;29;20054;-73
2021/10/14 13:40:47;;;;;;;4.93;2.78;;;17.60;72.10;;;;;;4828127;29;20065;-72
2021/10/14 13:43:17;;;;;;;4.57;2.80;;;17.60;72.10;;;;;;4827555;29;20085;-72
2021/10/14 13:45:43;;;;;;;4.50;3.22;;;17.60;72.10;;;;;;4824884;29;20058;-71
2021/10/14 13:48:09;;;;;;;5.88;3.28;;;17.60;72.10;;;;;;4825836;29;20051;-73
2021/10/14 13:50:34;;;;;;;6.13;3.20;;;17.60;72.00;;;;;;4826803;29;20382;-70
2021/10/14 13:53:00;;;;;;;8.55;3.63;;;17.70;72.00;;;;;;4826596;29;20069;-73
2021/10/14 13:55:26;;;;;;;6.97;3.30;;;17.70;72.70;;;;;;4826918;29;20047;-71
2021/10/14 13:57:52;;;;;;;10.65;4.32;;;17.70;72.50;;;;;;4827591;29;20061;-73
2021/10/14 14:00:19;;;;;;;11.55;3.47;;;17.80;72.80;;;;;;4826748;29;20051;-73
2021/10/14 14:02:46;;;;;;;10.35;4.25;;;17.80;72.70;;;;;;4811178;29;20069;-74
2021/10/14 14:05:12;;;;;;;5.07;2.72;;;17.80;73.00;;;;;;4811246;29;20062;-72
2021/10/14 14:07:37;;;;;;;5.47;2.72;;;17.80;72.50;;;;;;4827070;29;20100;-73
2021/10/14 14:10:04;;;;;;;4.90;2.85;;;17.80;72.10;;;;;;4827107;29;20054;-74
2021/10/14 14:12:30;;;;;;;8.00;2.88;;;18.00;72.40;;;;;;4796894;29;20062;-75
2021/10/14 14:14:56;;;;;;;8.18;2.63;;;18.10;72.30;;;;;;4811425;29;20366;-75
2021/10/14 14:17:21;;;;;;;6.60;2.58;;;18.20;72.10;;;;;;4827464;29;20141;-73
2021/10/14 14:19:47;;;;;;;7.60;2.88;;;18.30;72.00;;;;;;4826109;29;20141;-72
2021/10/14 14:22:13;;;;;;;5.72;2.47;;;18.50;71.70;;;;;;4825831;29;20054;-72
2021/10/14 14:24:39;;;;;;;5.80;2.60;;;18.50;71.40;;;;;;4811588;29;20054;-72
2021/10/14 14:27:04;;;;;;;6.93;3.25;;;18.60;71.20;;;;;;4824632;29;20054;-78
2021/10/14 14:29:32;;;;;;;5.32;2.42;;;18.70;71.20;;;;;;4794451;29;20352;-71
2021/10/14 14:32:00;;;;;;;5.43;2.22;;;18.70;71.00;;;;;;4792779;29;20047;-72
2021/10/14 14:34:27;;;;;;;6.18;2.33;;;18.70;70.90;;;;;;4792619;29;20066;-72
2021/10/14 14:36:53;;;;;;;4.15;1.80;;;18.70;71.00;;;;;;4808661;29;20130;-75
2021/10/14 14:39:19;;;;;;;4.95;2.20;;;18.70;71.20;;;;;;4792951;29;20062;-73
2021/10/14 14:41:44;;;;;;;6.63;2.45;;;18.70;71.20;;;;;;4808302;29;20050;-76
2021/10/14 14:44:10;;;;;;;7.80;2.67;;;18.80;71.50;;;;;;4808428;29;20050;-72
2021/10/14 14:46:36;;;;;;;5.25;2.63;;;18.80;71.40;;;;;;4808664;29;20054;-71
2021/10/14 14:49:04;;;;;;;6.05;2.40;;;18.80;72.30;;;;;;4792743;29;20050;-75
2021/10/14 14:51:30;;;;;;;3.83;2.13;;;18.80;72.00;;;;;;4808346;29;20058;-75
2021/10/14 14:53:57;;;;;;;5.75;2.08;;;18.80;71.90;;;;;;4808647;29;20047;-73
2021/10/14 14:56:24;;;;;;;6.53;2.17;;;18.90;71.80;;;;;;4807831;29;20173;-73
2021/10/14 14:58:50;;;;;;;5.68;2.53;;;19.00;71.60;;;;;;4808186;29;20135;-71
2021/10/14 15:01:16;;;;;;;12.02;5.50;;;19.10;72.90;;;;;;4808360;29;20051;-71
2021/10/14 15:03:42;;;;;;;7.32;2.72;;;19.10;74.60;;;;;;4808510;29;20127;-72
2021/10/14 15:06:09;;;;;;;4.18;2.05;;;19.10;73.60;;;;;;4792341;29;20077;-68
2021/10/14 15:08:35;;;;;;;7.03;2.53;;;19.10;73.00;;;;;;4812222;29;20061;-71
2021/10/14 15:11:01;;;;;;;8.07;2.85;;;19.10;72.90;;;;;;4826517;29;20446;-73
2021/10/14 15:13:32;;;;;;;8.80;2.50;;;19.10;72.80;;;;;;4809890;29;20370;-70
2021/10/14 15:15:58;;;;;;;7.38;2.63;;;19.10;73.10;;;;;;4826188;29;20133;-70
2021/10/14 15:18:25;;;;;;;6.05;2.45;;;19.20;73.40;;;;;;4826164;29;20057;-72
2021/10/14 15:20:52;;;;;;;8.85;2.50;;;19.10;73.30;;;;;;4826037;29;20055;-71
2021/10/14 15:23:19;;;;;;;6.85;2.35;;;19.10;73.20;;;;;;4826210;29;20062;-72
2021/10/14 15:25:45;;;;;;;5.35;2.10;;;19.10;73.50;;;;;;4826358;29;20050;-72
2021/10/14 15:28:11;;;;;;;6.57;2.20;;;19.10;73.80;;;;;;4826083;29;20050;-72
2021/10/14 15:30:40;;;;;;;4.82;2.47;;;19.10;73.90;;;;;;4826166;29;20059;-72
2021/10/14 15:33:06;;;;;;;4.65;2.05;;;19.10;74.10;;;;;;4825885;29;20080;-73
2021/10/14 15:35:33;;;;;;;3.80;2.13;;;19.10;74.30;;;;;;4825990;29;20054;-72
2021/10/14 15:38:03;;;;;;;6.68;2.50;;;19.10;74.50;;;;;;4825847;29;20459;-72
2021/10/14 15:40:28;;;;;;;6.90;2.30;;;19.10;74.70;;;;;;4826004;29;20057;-72
2021/10/14 15:42:54;;;;;;;5.15;2.53;;;19.00;74.90;;;;;;4825755;29;20059;-73
2021/10/14 15:45:20;;;;;;;6.60;2.28;;;19.00;75.20;;;;;;4825317;29;20466;-72
2021/10/14 15:47:45;;;;;;;4.57;2.13;;;18.90;75.40;;;;;;4825825;29;20081;-72
2021/10/14 15:50:11;;;;;;;5.25;2.30;;;18.90;75.60;;;;;;4825443;29;20054;-71
2021/10/14 15:52:37;;;;;;;4.60;2.42;;;18.80;75.40;;;;;;4826409;29;20069;-71
2021/10/14 15:55:03;;;;;;;6.03;1.83;;;18.90;75.10;;;;;;4825802;29;20046;-72
2021/10/14 15:57:29;;;;;;;5.10;2.13;;;18.90;75.00;;;;;;4825871;29;20133;-73
2021/10/14 15:59:56;;;;;;;4.35;1.95;;;18.90;74.90;;;;;;4825672;29;20125;-73
2021/10/14 16:02:21;;;;;;;7.22;2.22;;;18.90;74.90;;;;;;4825683;29;20050;-72
2021/10/14 16:04:47;;;;;;;6.38;2.20;;;18.80;75.00;;;;;;4826202;29;20438;-74
2021/10/14 16:07:14;;;;;;;4.53;1.98;;;18.80;75.10;;;;;;4819635;29;20423;-75
2021/10/14 16:09:40;;;;;;;4.32;2.10;;;18.90;75.00;;;;;;4825672;29;20402;-74
2021/10/14 16:12:06;;;;;;;2.85;1.73;;;18.90;74.80;;;;;;4828039;29;20054;-73
2021/10/14 16:14:32;;;;;;;5.97;2.05;;;18.90;74.60;;;;;;4829243;29;20058;-72
2021/10/14 16:16:58;;;;;;;6.85;2.10;;;18.90;74.50;;;;;;4828874;29;20130;-73
2021/10/14 16:19:25;;;;;;;6.22;2.40;;;18.90;74.70;;;;;;4828876;29;20086;-72
2021/10/14 17:35:16;;;;;;;6.18;2.00;;;18.50;74.00;;;;;;4846039;29;20085;-69
